sensor_id;sensor_type;location;lat;lon;timestamp;temperature;humidity
27376;DHT22;14844;51.302;6.354;2022-12-07T00:01:39;4.60;99.90
27376;DHT22;14844;51.302;6.354;2022-12-07T00:04:07;4.60;99.90
27376;DHT22;14844;51.302;6.354;2022-12-07T00:06:38;4.70;99.90
27376;DHT22;14844;51.302;6.354;2022-12-07T00:09:06;4.70;99.90
27376;DHT22;14844;51.302;6.354;2022-12-07T00:11:32;4.80;99.90
27376;DHT22;14844;51.302;6.354;2022-12-07T00:14:00;4.80;99.90
27376;DHT22;14844;51.302;6.354;2022-12-07T00:16:28;4.80;99.90
27376;DHT22;14844;51.302;6.354;2022-12-07T00:18:55;4.90;99.90
27376;DHT22;14844;51.302;6.354;2022-12-07T00:21:29;4.90;99.90
27376;DHT22;14844;51.302;6.354;2022-12-07T00:23:55;4.80;99.90
27376;DHT22;14844;51.302;6.354;2022-12-07T00:26:23;4.80;99.90
27376;DHT22;14844;51.302;6.354;2022-12-07T00:28:52;4.80;99.90
27376;DHT22;14844;51.302;6.354;2022-12-07T00:31:20;4.80;99.90
27376;DHT22;14844;51.302;6.354;2022-12-07T00:33:47;4.80;99.90
27376;DHT22;14844;51.302;6.354;2022-12-07T00:36:15;4.80;99.90
27376;DHT22;14844;51.302;6.354;2022-12-07T00:38:41;4.90;99.90
27376;DHT22;14844;51.302;6.354;2022-12-07T00:41:12;4.80;99.90
27376;DHT22;14844;51.302;6.354;2022-12-07T00:43:38;4.80;99.90
27376;DHT22;14844;51.302;6.354;2022-12-07T00:46:04;4.80;99.90
27376;DHT22;14844;51.302;6.354;2022-12-07T00:48:30;4.90;99.90
27376;DHT22;14844;51.302;6.354;2022-12-07T00:50:55;4.90;99.90
27376;DHT22;14844;51.302;6.354;2022-12-07T00:53:21;4.80;99.90
27376;DHT22;14844;51.302;6.354;2022-12-07T00:55:47;4.80;99.90
27376;DHT22;14844;51.302;6.354;2022-12-07T00:58:13;4.80;99.90
27376;DHT22;14844;51.302;6.354;2022-12-07T01:00:39;4.70;99.90
27376;DHT22;14844;51.302;6.354;2022-12-07T01:03:07;4.70;99.90
27376;DHT22;14844;51.302;6.354;2022-12-07T01:05:33;4.70;99.90
27376;DHT22;14844;51.302;6.354;2022-12-07T01:08:00;4.70;99.90
27376;DHT22;14844;51.302;6.354;2022-12-07T01:10:26;4.60;99.90
27376;DHT22;14844;51.302;6.354;2022-12-07T01:12:52;4.70;99.90
27376;DHT22;14844;51.302;6.354;2022-12-07T01:15:17;4.70;99.90
27376;DHT22;14844;51.302;6.354;2022-12-07T01:17:43;4.60;99.90
27376;DHT22;14844;51.302;6.354;2022-12-07T01:20:09;4.60;99.90
27376;DHT22;14844;51.302;6.354;2022-12-07T01:22:39;4.70;99.90
27376;DHT22;14844;51.302;6.354;2022-12-07T01:25:06;4.60;99.90
27376;DHT22;14844;51.302;6.354;2022-12-07T01:27:36;4.60;99.90
27376;DHT22;14844;51.302;6.354;2022-12-07T01:30:04;4.70;99.90
27376;DHT22;14844;51.302;6.354;2022-12-07T01:32:30;4.60;99.90
27376;DHT22;14844;51.302;6.354;2022-12-07T01:34:56;4.70;99.90
27376;DHT22;14844;51.302;6.354;2022-12-07T01:37:21;4.70;99.90
27376;DHT22;14844;51.302;6.354;2022-12-07T01:39:51;4.70;99.90
27376;DHT22;14844;51.302;6.354;2022-12-07T01:42:17;4.70;99.90
27376;DHT22;14844;51.302;6.354;2022-12-07T01:47:49;4.70;99.90
27376;DHT22;14844;51.302;6.354;2022-12-07T01:50:16;4.60;99.90
27376;DHT22;14844;51.302;6.354;2022-12-07T01:52:44;4.50;99.90
27376;DHT22;14844;51.302;6.354;2022-12-07T01:55:12;4.50;99.90
27376;DHT22;14844;51.302;6.354;2022-12-07T01:57:46;4.50;99.90
27376;DHT22;14844;51.302;6.354;2022-12-07T02:00:13;4.40;99.90
27376;DHT22;14844;51.302;6.354;2022-12-07T02:03:18;4.40;99.90
27376;DHT22;14844;51.302;6.354;2022-12-07T02:05:45;4.40;99.90
27376;DHT22;14844;51.302;6.354;2022-12-07T02:08:12;4.40;99.90
27376;DHT22;14844;51.302;6.354;2022-12-07T02:10:38;4.40;99.90
27376;DHT22;14844;51.302;6.354;2022-12-07T02:13:16;4.40;99.90
27376;DHT22;14844;51.302;6.354;2022-12-07T02:15:51;4.40;99.90
27376;DHT22;14844;51.302;6.354;2022-12-07T02:23:46;4.50;99.90
27376;DHT22;14844;51.302;6.354;2022-12-07T02:26:25;4.50;99.90
27376;DHT22;14844;51.302;6.354;2022-12-07T02:31:41;4.40;99.90
27376;DHT22;14844;51.302;6.354;2022-12-07T02:34:19;4.50;99.90
27376;DHT22;14844;51.302;6.354;2022-12-07T02:36:53;4.50;99.90
27376;DHT22;14844;51.302;6.354;2022-12-07T02:39:33;4.40;99.90
27376;DHT22;14844;51.302;6.354;2022-12-07T02:42:12;4.40;99.90
27376;DHT22;14844;51.302;6.354;2022-12-07T02:44:39;4.30;99.90
27376;DHT22;14844;51.302;6.354;2022-12-07T02:47:09;4.30;99.90
27376;DHT22;14844;51.302;6.354;2022-12-07T02:49:37;4.30;99.90
27376;DHT22;14844;51.302;6.354;2022-12-07T02:52:04;4.20;99.90
27376;DHT22;14844;51.302;6.354;2022-12-07T02:54:30;4.20;99.90
27376;DHT22;14844;51.302;6.354;2022-12-07T03:00:13;4.20;99.90
27376;DHT22;14844;51.302;6.354;2022-12-07T03:03:04;4.10;99.90
27376;DHT22;14844;51.302;6.354;2022-12-07T03:05:52;4.10;99.90
27376;DHT22;14844;51.302;6.354;2022-12-07T03:11:03;4.10;99.90
27376;DHT22;14844;51.302;6.354;2022-12-07T03:13:34;4.10;99.90
27376;DHT22;14844;51.302;6.354;2022-12-07T03:16:10;4.10;99.90
27376;DHT22;14844;51.302;6.354;2022-12-07T03:19:02;4.20;99.90
27376;DHT22;14844;51.302;6.354;2022-12-07T03:22:02;4.20;99.90
27376;DHT22;14844;51.302;6.354;2022-12-07T03:24:40;4.20;99.90
27376;DHT22;14844;51.302;6.354;2022-12-07T03:27:58;4.30;99.90
27376;DHT22;14844;51.302;6.354;2022-12-07T03:31:14;4.30;99.90
27376;DHT22;14844;51.302;6.354;2022-12-07T03:33:23;4.30;99.90
27376;DHT22;14844;51.302;6.354;2022-12-07T03:38:21;4.20;99.90
27376;DHT22;14844;51.302;6.354;2022-12-07T03:41:05;4.20;99.90
27376;DHT22;14844;51.302;6.354;2022-12-07T03:43:33;4.10;99.90
27376;DHT22;14844;51.302;6.354;2022-12-07T03:49:00;4.00;99.90
27376;DHT22;14844;51.302;6.354;2022-12-07T03:51:54;3.90;99.90
27376;DHT22;14844;51.302;6.354;2022-12-07T03:54:33;3.90;99.90
27376;DHT22;14844;51.302;6.354;2022-12-07T03:57:01;3.90;99.90
27376;DHT22;14844;51.302;6.354;2022-12-07T03:59:27;4.00;99.90
27376;DHT22;14844;51.302;6.354;2022-12-07T04:01:56;4.00;99.90
27376;DHT22;14844;51.302;6.354;2022-12-07T04:04:25;4.00;99.90
27376;DHT22;14844;51.302;6.354;2022-12-07T04:06:51;4.00;99.90
27376;DHT22;14844;51.302;6.354;2022-12-07T04:09:17;4.10;99.90
27376;DHT22;14844;51.302;6.354;2022-12-07T04:11:42;4.10;99.90
27376;DHT22;14844;51.302;6.354;2022-12-07T04:14:08;4.10;99.90
27376;DHT22;14844;51.302;6.354;2022-12-07T04:16:50;4.10;99.90
27376;DHT22;14844;51.302;6.354;2022-12-07T04:19:18;4.20;99.90
27376;DHT22;14844;51.302;6.354;2022-12-07T04:21:44;4.20;99.90
27376;DHT22;14844;51.302;6.354;2022-12-07T04:24:11;4.20;99.90
27376;DHT22;14844;51.302;6.354;2022-12-07T04:26:37;4.20;99.90
27376;DHT22;14844;51.302;6.354;2022-12-07T04:29:02;4.20;99.90
27376;DHT22;14844;51.302;6.354;2022-12-07T04:31:28;4.20;99.90
27376;DHT22;14844;51.302;6.354;2022-12-07T04:33:53;4.20;99.90
27376;DHT22;14844;51.302;6.354;2022-12-07T04:36:19;4.20;99.90
27376;DHT22;14844;51.302;6.354;2022-12-07T04:38:46;4.30;99.90
27376;DHT22;14844;51.302;6.354;2022-12-07T04:41:11;4.30;99.90
27376;DHT22;14844;51.302;6.354;2022-12-07T04:43:37;4.20;99.90
27376;DHT22;14844;51.302;6.354;2022-12-07T04:46:03;4.20;99.90
27376;DHT22;14844;51.302;6.354;2022-12-07T04:48:28;4.20;99.90
27376;DHT22;14844;51.302;6.354;2022-12-07T04:50:54;4.10;99.90
27376;DHT22;14844;51.302;6.354;2022-12-07T04:53:20;4.10;99.90
27376;DHT22;14844;51.302;6.354;2022-12-07T04:55:45;4.10;99.90
27376;DHT22;14844;51.302;6.354;2022-12-07T04:58:12;4.00;99.90
27376;DHT22;14844;51.302;6.354;2022-12-07T05:00:38;4.00;99.90
27376;DHT22;14844;51.302;6.354;2022-12-07T05:03:04;3.90;99.90
27376;DHT22;14844;51.302;6.354;2022-12-07T05:05:29;3.90;99.90
27376;DHT22;14844;51.302;6.354;2022-12-07T05:07:55;4.00;99.90
27376;DHT22;14844;51.302;6.354;2022-12-07T05:10:21;4.00;99.90
27376;DHT22;14844;51.302;6.354;2022-12-07T05:12:46;4.00;99.90
27376;DHT22;14844;51.302;6.354;2022-12-07T05:15:13;4.10;99.90
27376;DHT22;14844;51.302;6.354;2022-12-07T05:17:39;4.10;99.90
27376;DHT22;14844;51.302;6.354;2022-12-07T05:20:05;4.10;99.90
27376;DHT22;14844;51.302;6.354;2022-12-07T05:22:31;4.10;99.90
27376;DHT22;14844;51.302;6.354;2022-12-07T05:24:56;4.10;99.90
27376;DHT22;14844;51.302;6.354;2022-12-07T05:27:22;4.10;99.90
27376;DHT22;14844;51.302;6.354;2022-12-07T05:29:50;4.10;99.90
27376;DHT22;14844;51.302;6.354;2022-12-07T05:32:17;4.10;99.90
27376;DHT22;14844;51.302;6.354;2022-12-07T05:34:43;4.10;99.90
27376;DHT22;14844;51.302;6.354;2022-12-07T05:37:09;4.10;99.90
27376;DHT22;14844;51.302;6.354;2022-12-07T05:39:34;4.10;99.90
27376;DHT22;14844;51.302;6.354;2022-12-07T05:42:00;4.10;99.90
27376;DHT22;14844;51.302;6.354;2022-12-07T05:44:42;4.10;99.90
27376;DHT22;14844;51.302;6.354;2022-12-07T05:47:08;4.20;99.90
27376;DHT22;14844;51.302;6.354;2022-12-07T05:49:37;4.20;99.90
27376;DHT22;14844;51.302;6.354;2022-12-07T05:52:03;4.20;99.90
27376;DHT22;14844;51.302;6.354;2022-12-07T05:54:29;4.20;99.90
27376;DHT22;14844;51.302;6.354;2022-12-07T05:56:55;4.20;99.90
27376;DHT22;14844;51.302;6.354;2022-12-07T05:59:21;4.10;99.90
27376;DHT22;14844;51.302;6.354;2022-12-07T06:02:05;4.10;99.90
27376;DHT22;14844;51.302;6.354;2022-12-07T06:04:33;4.10;99.90
27376;DHT22;14844;51.302;6.354;2022-12-07T06:06:59;4.10;99.90
27376;DHT22;14844;51.302;6.354;2022-12-07T06:09:26;4.10;99.90
27376;DHT22;14844;51.302;6.354;2022-12-07T06:11:54;4.10;99.90
27376;DHT22;14844;51.302;6.354;2022-12-07T06:14:38;4.10;99.90
27376;DHT22;14844;51.302;6.354;2022-12-07T06:17:04;4.10;99.90
27376;DHT22;14844;51.302;6.354;2022-12-07T06:19:30;4.20;99.90
27376;DHT22;14844;51.302;6.354;2022-12-07T06:21:56;4.20;99.90
27376;DHT22;14844;51.302;6.354;2022-12-07T06:24:22;4.10;99.90
27376;DHT22;14844;51.302;6.354;2022-12-07T06:26:48;4.20;99.90
27376;DHT22;14844;51.302;6.354;2022-12-07T06:29:15;4.10;99.90
27376;DHT22;14844;51.302;6.354;2022-12-07T06:31:40;4.20;99.90
27376;DHT22;14844;51.302;6.354;2022-12-07T06:34:12;4.10;99.90
27376;DHT22;14844;51.302;6.354;2022-12-07T06:36:38;4.10;99.90
27376;DHT22;14844;51.302;6.354;2022-12-07T06:39:05;4.10;99.90
27376;DHT22;14844;51.302;6.354;2022-12-07T06:41:31;4.00;99.90
27376;DHT22;14844;51.302;6.354;2022-12-07T06:43:56;4.00;99.90
27376;DHT22;14844;51.302;6.354;2022-12-07T06:46:22;3.90;99.90
27376;DHT22;14844;51.302;6.354;2022-12-07T06:48:48;3.90;99.90
27376;DHT22;14844;51.302;6.354;2022-12-07T06:51:14;3.80;99.90
27376;DHT22;14844;51.302;6.354;2022-12-07T06:53:39;3.80;99.90
27376;DHT22;14844;51.302;6.354;2022-12-07T06:56:05;3.90;99.90
27376;DHT22;14844;51.302;6.354;2022-12-07T06:58:31;3.90;99.90
27376;DHT22;14844;51.302;6.354;2022-12-07T07:00:56;3.90;99.90
27376;DHT22;14844;51.302;6.354;2022-12-07T07:03:22;3.90;99.90
27376;DHT22;14844;51.302;6.354;2022-12-07T07:05:48;3.90;99.90
27376;DHT22;14844;51.302;6.354;2022-12-07T07:08:13;4.00;99.90
27376;DHT22;14844;51.302;6.354;2022-12-07T07:10:39;4.00;99.90
27376;DHT22;14844;51.302;6.354;2022-12-07T07:13:05;3.90;99.90
27376;DHT22;14844;51.302;6.354;2022-12-07T07:15:31;3.90;99.90
27376;DHT22;14844;51.302;6.354;2022-12-07T07:17:57;3.90;99.90
27376;DHT22;14844;51.302;6.354;2022-12-07T07:20:23;3.90;99.90
27376;DHT22;14844;51.302;6.354;2022-12-07T07:22:49;3.80;99.90
27376;DHT22;14844;51.302;6.354;2022-12-07T07:25:15;3.80;99.90
27376;DHT22;14844;51.302;6.354;2022-12-07T07:27:41;3.70;99.90
27376;DHT22;14844;51.302;6.354;2022-12-07T07:30:07;3.70;99.90
27376;DHT22;14844;51.302;6.354;2022-12-07T07:32:33;3.60;99.90
27376;DHT22;14844;51.302;6.354;2022-12-07T07:34:59;3.60;99.90
27376;DHT22;14844;51.302;6.354;2022-12-07T07:37:25;3.50;99.90
27376;DHT22;14844;51.302;6.354;2022-12-07T07:39:51;3.50;99.90
27376;DHT22;14844;51.302;6.354;2022-12-07T07:42:16;3.50;99.90
27376;DHT22;14844;51.302;6.354;2022-12-07T07:44:42;3.40;99.90
27376;DHT22;14844;51.302;6.354;2022-12-07T07:47:07;3.40;99.90
27376;DHT22;14844;51.302;6.354;2022-12-07T07:49:33;3.40;99.90
27376;DHT22;14844;51.302;6.354;2022-12-07T07:51:58;3.40;99.90
27376;DHT22;14844;51.302;6.354;2022-12-07T07:54:29;3.40;99.90
27376;DHT22;14844;51.302;6.354;2022-12-07T07:56:54;3.40;99.90
27376;DHT22;14844;51.302;6.354;2022-12-07T07:59:20;3.50;99.90
27376;DHT22;14844;51.302;6.354;2022-12-07T08:01:46;3.60;99.90
27376;DHT22;14844;51.302;6.354;2022-12-07T08:04:11;3.70;99.90
27376;DHT22;14844;51.302;6.354;2022-12-07T08:06:37;3.70;99.90
27376;DHT22;14844;51.302;6.354;2022-12-07T08:09:02;3.80;99.90
27376;DHT22;14844;51.302;6.354;2022-12-07T08:11:29;3.80;99.90
27376;DHT22;14844;51.302;6.354;2022-12-07T08:13:55;3.90;99.90
27376;DHT22;14844;51.302;6.354;2022-12-07T08:16:20;3.80;99.90
27376;DHT22;14844;51.302;6.354;2022-12-07T08:18:46;3.90;99.90
27376;DHT22;14844;51.302;6.354;2022-12-07T08:21:13;3.90;99.90
27376;DHT22;14844;51.302;6.354;2022-12-07T08:23:39;3.80;99.90
27376;DHT22;14844;51.302;6.354;2022-12-07T08:26:11;3.70;99.90
27376;DHT22;14844;51.302;6.354;2022-12-07T08:28:37;3.70;99.90
27376;DHT22;14844;51.302;6.354;2022-12-07T08:31:13;3.80;99.90
27376;DHT22;14844;51.302;6.354;2022-12-07T08:33:40;3.80;99.90
27376;DHT22;14844;51.302;6.354;2022-12-07T08:36:10;4.00;99.90
27376;DHT22;14844;51.302;6.354;2022-12-07T08:38:38;4.00;99.90
27376;DHT22;14844;51.302;6.354;2022-12-07T08:41:04;4.10;99.90
27376;DHT22;14844;51.302;6.354;2022-12-07T08:43:30;4.20;99.90
27376;DHT22;14844;51.302;6.354;2022-12-07T08:49:04;4.10;99.90
27376;DHT22;14844;51.302;6.354;2022-12-07T08:51:31;4.10;99.90
27376;DHT22;14844;51.302;6.354;2022-12-07T08:53:58;4.10;99.90
27376;DHT22;14844;51.302;6.354;2022-12-07T08:56:26;4.10;99.90
27376;DHT22;14844;51.302;6.354;2022-12-07T08:58:52;4.20;99.90
27376;DHT22;14844;51.302;6.354;2022-12-07T09:01:18;4.30;99.90
27376;DHT22;14844;51.302;6.354;2022-12-07T09:03:43;4.40;99.90
27376;DHT22;14844;51.302;6.354;2022-12-07T09:06:09;4.50;99.90
27376;DHT22;14844;51.302;6.354;2022-12-07T09:08:40;4.60;99.90
27376;DHT22;14844;51.302;6.354;2022-12-07T09:11:07;4.70;99.90
27376;DHT22;14844;51.302;6.354;2022-12-07T09:13:33;4.70;99.90
27376;DHT22;14844;51.302;6.354;2022-12-07T09:15:58;4.70;99.90
27376;DHT22;14844;51.302;6.354;2022-12-07T09:18:24;4.60;99.90
27376;DHT22;14844;51.302;6.354;2022-12-07T09:20:50;4.60;99.90
27376;DHT22;14844;51.302;6.354;2022-12-07T09:23:16;4.60;99.90
27376;DHT22;14844;51.302;6.354;2022-12-07T09:25:41;4.50;99.90
27376;DHT22;14844;51.302;6.354;2022-12-07T09:28:07;4.50;99.90
27376;DHT22;14844;51.302;6.354;2022-12-07T09:30:32;4.40;99.90
27376;DHT22;14844;51.302;6.354;2022-12-07T09:32:58;4.60;99.90
27376;DHT22;14844;51.302;6.354;2022-12-07T09:35:24;4.70;99.90
27376;DHT22;14844;51.302;6.354;2022-12-07T09:37:50;4.90;99.90
27376;DHT22;14844;51.302;6.354;2022-12-07T09:40:17;5.10;99.90
27376;DHT22;14844;51.302;6.354;2022-12-07T09:42:47;5.20;99.90
27376;DHT22;14844;51.302;6.354;2022-12-07T09:45:16;5.30;99.90
27376;DHT22;14844;51.302;6.354;2022-12-07T09:47:44;5.30;99.90
27376;DHT22;14844;51.302;6.354;2022-12-07T09:50:24;5.30;99.90
27376;DHT22;14844;51.302;6.354;2022-12-07T09:52:51;5.30;99.90
27376;DHT22;14844;51.302;6.354;2022-12-07T09:55:23;5.30;99.90
27376;DHT22;14844;51.302;6.354;2022-12-07T09:57:50;5.20;99.90
27376;DHT22;14844;51.302;6.354;2022-12-07T10:00:19;5.20;99.90
27376;DHT22;14844;51.302;6.354;2022-12-07T10:03:00;5.20;99.90
27376;DHT22;14844;51.302;6.354;2022-12-07T10:05:35;5.20;99.90
27376;DHT22;14844;51.302;6.354;2022-12-07T10:08:03;5.30;99.90
27376;DHT22;14844;51.302;6.354;2022-12-07T10:10:34;5.30;99.90
27376;DHT22;14844;51.302;6.354;2022-12-07T10:13:03;5.40;99.90
27376;DHT22;14844;51.302;6.354;2022-12-07T10:18:34;5.40;99.90
27376;DHT22;14844;51.302;6.354;2022-12-07T10:21:12;5.40;99.90
27376;DHT22;14844;51.302;6.354;2022-12-07T10:23:59;5.40;99.90
27376;DHT22;14844;51.302;6.354;2022-12-07T10:26:32;5.40;99.90
27376;DHT22;14844;51.302;6.354;2022-12-07T10:31:40;5.50;99.90
27376;DHT22;14844;51.302;6.354;2022-12-07T10:34:48;5.50;99.90
27376;DHT22;14844;51.302;6.354;2022-12-07T10:39:46;5.50;99.90
27376;DHT22;14844;51.302;6.354;2022-12-07T10:42:23;5.50;99.90
27376;DHT22;14844;51.302;6.354;2022-12-07T10:44:50;5.60;99.90
27376;DHT22;14844;51.302;6.354;2022-12-07T10:47:55;5.70;99.90
27376;DHT22;14844;51.302;6.354;2022-12-07T10:50:53;5.70;99.90
27376;DHT22;14844;51.302;6.354;2022-12-07T10:59:41;5.70;99.90
27376;DHT22;14844;51.302;6.354;2022-12-07T11:11:38;5.90;99.90
27376;DHT22;14844;51.302;6.354;2022-12-07T11:14:48;5.90;99.90
27376;DHT22;14844;51.302;6.354;2022-12-07T11:23:17;6.40;99.90
27376;DHT22;14844;51.302;6.354;2022-12-07T11:28:38;6.90;99.90
27376;DHT22;14844;51.302;6.354;2022-12-07T11:31:24;7.00;99.90
27376;DHT22;14844;51.302;6.354;2022-12-07T11:34:39;7.10;99.90
27376;DHT22;14844;51.302;6.354;2022-12-07T11:36:44;7.20;99.90
27376;DHT22;14844;51.302;6.354;2022-12-07T11:39:22;7.20;99.90
27376;DHT22;14844;51.302;6.354;2022-12-07T11:42:00;7.20;99.90
27376;DHT22;14844;51.302;6.354;2022-12-07T11:44:51;7.10;99.90
27376;DHT22;14844;51.302;6.354;2022-12-07T11:50:24;7.20;99.90
27376;DHT22;14844;51.302;6.354;2022-12-07T11:52:58;7.60;99.90
27376;DHT22;14844;51.302;6.354;2022-12-07T12:00:52;7.90;99.90
27376;DHT22;14844;51.302;6.354;2022-12-07T12:03:28;7.80;99.90
27376;DHT22;14844;51.302;6.354;2022-12-07T12:05:57;7.60;99.90
27376;DHT22;14844;51.302;6.354;2022-12-07T12:08:31;7.50;99.90
27376;DHT22;14844;51.302;6.354;2022-12-07T12:11:08;7.40;99.90
27376;DHT22;14844;51.302;6.354;2022-12-07T12:23:19;7.10;99.90
27376;DHT22;14844;51.302;6.354;2022-12-07T12:25:57;7.00;99.90
27376;DHT22;14844;51.302;6.354;2022-12-07T12:28:28;7.00;99.90
27376;DHT22;14844;51.302;6.354;2022-12-07T12:31:14;7.00;99.90
27376;DHT22;14844;51.302;6.354;2022-12-07T12:34:29;6.90;99.90
27376;DHT22;14844;51.302;6.354;2022-12-07T12:36:43;6.90;99.90
27376;DHT22;14844;51.302;6.354;2022-12-07T12:39:17;6.90;99.90
27376;DHT22;14844;51.302;6.354;2022-12-07T12:46:52;7.10;99.90
27376;DHT22;14844;51.302;6.354;2022-12-07T12:51:49;7.10;99.90
27376;DHT22;14844;51.302;6.354;2022-12-07T12:57:13;7.20;99.90
27376;DHT22;14844;51.302;6.354;2022-12-07T12:59:55;7.20;99.90
27376;DHT22;14844;51.302;6.354;2022-12-07T13:02:35;7.20;99.90
27376;DHT22;14844;51.302;6.354;2022-12-07T13:23:55;7.10;99.90
27376;DHT22;14844;51.302;6.354;2022-12-07T13:31:56;7.20;99.90
27376;DHT22;14844;51.302;6.354;2022-12-07T13:34:38;7.20;99.90
27376;DHT22;14844;51.302;6.354;2022-12-07T13:37:26;7.20;99.90
27376;DHT22;14844;51.302;6.354;2022-12-07T13:39:58;7.20;99.90
27376;DHT22;14844;51.302;6.354;2022-12-07T13:42:27;7.20;99.90
27376;DHT22;14844;51.302;6.354;2022-12-07T13:44:53;7.20;99.90
27376;DHT22;14844;51.302;6.354;2022-12-07T13:47:32;7.20;99.90
27376;DHT22;14844;51.302;6.354;2022-12-07T13:49:59;7.30;99.90
27376;DHT22;14844;51.302;6.354;2022-12-07T13:52:30;7.20;99.90
27376;DHT22;14844;51.302;6.354;2022-12-07T13:57:30;7.10;99.90
27376;DHT22;14844;51.302;6.354;2022-12-07T13:59:57;7.00;99.90
27376;DHT22;14844;51.302;6.354;2022-12-07T14:02:25;7.00;99.90
27376;DHT22;14844;51.302;6.354;2022-12-07T14:04:52;7.00;99.90
27376;DHT22;14844;51.302;6.354;2022-12-07T14:07:33;7.00;99.90
27376;DHT22;14844;51.302;6.354;2022-12-07T14:10:02;7.00;99.90
27376;DHT22;14844;51.302;6.354;2022-12-07T14:12:45;7.10;99.90
27376;DHT22;14844;51.302;6.354;2022-12-07T14:15:26;7.10;99.90
27376;DHT22;14844;51.302;6.354;2022-12-07T14:17:55;7.10;99.90
27376;DHT22;14844;51.302;6.354;2022-12-07T14:20:37;7.10;99.90
27376;DHT22;14844;51.302;6.354;2022-12-07T14:23:05;7.10;99.90
27376;DHT22;14844;51.302;6.354;2022-12-07T14:25:50;7.10;99.90
27376;DHT22;14844;51.302;6.354;2022-12-07T14:28:31;7.00;99.90
27376;DHT22;14844;51.302;6.354;2022-12-07T14:30:57;7.00;99.90
27376;DHT22;14844;51.302;6.354;2022-12-07T14:33:24;6.90;99.90
27376;DHT22;14844;51.302;6.354;2022-12-07T14:35:49;6.80;99.90
27376;DHT22;14844;51.302;6.354;2022-12-07T14:38:15;6.80;99.90
27376;DHT22;14844;51.302;6.354;2022-12-07T14:40:40;6.70;99.90
27376;DHT22;14844;51.302;6.354;2022-12-07T14:43:11;6.70;99.90
27376;DHT22;14844;51.302;6.354;2022-12-07T14:45:37;6.60;99.90
27376;DHT22;14844;51.302;6.354;2022-12-07T14:48:05;6.50;99.90
27376;DHT22;14844;51.302;6.354;2022-12-07T14:50:36;6.40;99.90
27376;DHT22;14844;51.302;6.354;2022-12-07T14:53:10;6.30;99.90
27376;DHT22;14844;51.302;6.354;2022-12-07T14:55:37;6.30;99.90
27376;DHT22;14844;51.302;6.354;2022-12-07T14:58:03;6.20;99.90
27376;DHT22;14844;51.302;6.354;2022-12-07T15:00:29;6.10;99.90
27376;DHT22;14844;51.302;6.354;2022-12-07T15:02:55;6.00;99.90
27376;DHT22;14844;51.302;6.354;2022-12-07T15:05:21;5.90;99.90
27376;DHT22;14844;51.302;6.354;2022-12-07T15:07:48;5.80;99.90
27376;DHT22;14844;51.302;6.354;2022-12-07T15:10:21;5.80;99.90
27376;DHT22;14844;51.302;6.354;2022-12-07T15:12:47;5.70;99.90
27376;DHT22;14844;51.302;6.354;2022-12-07T15:15:14;5.60;99.90
27376;DHT22;14844;51.302;6.354;2022-12-07T15:17:39;5.60;99.90
27376;DHT22;14844;51.302;6.354;2022-12-07T15:20:08;5.50;99.90
27376;DHT22;14844;51.302;6.354;2022-12-07T15:22:34;5.50;99.90
27376;DHT22;14844;51.302;6.354;2022-12-07T15:25:00;5.40;99.90
27376;DHT22;14844;51.302;6.354;2022-12-07T15:27:26;5.50;99.90
27376;DHT22;14844;51.302;6.354;2022-12-07T15:29:52;5.40;99.90
27376;DHT22;14844;51.302;6.354;2022-12-07T15:32:19;5.40;99.90
27376;DHT22;14844;51.302;6.354;2022-12-07T15:34:44;5.50;99.90
27376;DHT22;14844;51.302;6.354;2022-12-07T15:37:10;5.50;99.90
27376;DHT22;14844;51.302;6.354;2022-12-07T15:39:36;5.60;99.90
27376;DHT22;14844;51.302;6.354;2022-12-07T15:42:01;5.50;99.90
27376;DHT22;14844;51.302;6.354;2022-12-07T15:44:27;5.60;99.90
27376;DHT22;14844;51.302;6.354;2022-12-07T15:47:11;5.60;99.90
27376;DHT22;14844;51.302;6.354;2022-12-07T15:49:37;5.60;99.90
27376;DHT22;14844;51.302;6.354;2022-12-07T15:52:03;5.60;99.90
27376;DHT22;14844;51.302;6.354;2022-12-07T15:54:29;5.60;99.90
27376;DHT22;14844;51.302;6.354;2022-12-07T15:56:55;5.60;99.90
27376;DHT22;14844;51.302;6.354;2022-12-07T15:59:22;5.60;99.90
27376;DHT22;14844;51.302;6.354;2022-12-07T16:01:48;5.60;99.90
27376;DHT22;14844;51.302;6.354;2022-12-07T16:04:13;5.50;99.90
27376;DHT22;14844;51.302;6.354;2022-12-07T16:06:39;5.50;99.90
27376;DHT22;14844;51.302;6.354;2022-12-07T16:09:05;5.50;99.90
27376;DHT22;14844;51.302;6.354;2022-12-07T16:11:31;5.50;99.90
27376;DHT22;14844;51.302;6.354;2022-12-07T16:14:00;5.50;99.90
27376;DHT22;14844;51.302;6.354;2022-12-07T16:16:26;5.50;99.90
27376;DHT22;14844;51.302;6.354;2022-12-07T16:18:52;5.50;99.90
27376;DHT22;14844;51.302;6.354;2022-12-07T16:21:19;5.40;99.90
27376;DHT22;14844;51.302;6.354;2022-12-07T16:23:45;5.40;99.90
27376;DHT22;14844;51.302;6.354;2022-12-07T16:26:14;5.40;99.90
27376;DHT22;14844;51.302;6.354;2022-12-07T16:28:40;5.40;99.90
27376;DHT22;14844;51.302;6.354;2022-12-07T16:31:09;5.50;99.90
27376;DHT22;14844;51.302;6.354;2022-12-07T16:33:37;5.40;99.90
27376;DHT22;14844;51.302;6.354;2022-12-07T16:36:04;5.50;99.90
27376;DHT22;14844;51.302;6.354;2022-12-07T16:38:30;5.40;99.90
27376;DHT22;14844;51.302;6.354;2022-12-07T16:40:56;5.30;99.90
27376;DHT22;14844;51.302;6.354;2022-12-07T16:43:21;5.30;99.90
27376;DHT22;14844;51.302;6.354;2022-12-07T16:45:47;5.20;99.90
27376;DHT22;14844;51.302;6.354;2022-12-07T16:48:14;4.90;99.90
27376;DHT22;14844;51.302;6.354;2022-12-07T16:50:40;4.70;99.90
27376;DHT22;14844;51.302;6.354;2022-12-07T16:53:07;4.70;99.90
27376;DHT22;14844;51.302;6.354;2022-12-07T16:55:40;4.70;99.90
27376;DHT22;14844;51.302;6.354;2022-12-07T16:58:07;4.60;99.90
27376;DHT22;14844;51.302;6.354;2022-12-07T17:00:33;4.60;99.90
27376;DHT22;14844;51.302;6.354;2022-12-07T17:02:59;4.70;99.90
27376;DHT22;14844;51.302;6.354;2022-12-07T17:05:26;4.60;99.90
27376;DHT22;14844;51.302;6.354;2022-12-07T17:07:53;4.60;99.90
27376;DHT22;14844;51.302;6.354;2022-12-07T17:10:19;4.60;99.90
27376;DHT22;14844;51.302;6.354;2022-12-07T17:12:44;4.60;99.90
27376;DHT22;14844;51.302;6.354;2022-12-07T17:15:10;4.60;99.90
27376;DHT22;14844;51.302;6.354;2022-12-07T17:18:06;4.60;99.90
27376;DHT22;14844;51.302;6.354;2022-12-07T17:20:32;4.60;99.90
27376;DHT22;14844;51.302;6.354;2022-12-07T17:22:58;4.60;99.90
27376;DHT22;14844;51.302;6.354;2022-12-07T17:25:23;4.60;99.90
27376;DHT22;14844;51.302;6.354;2022-12-07T17:27:49;4.60;99.90
27376;DHT22;14844;51.302;6.354;2022-12-07T17:30:15;4.60;99.90
27376;DHT22;14844;51.302;6.354;2022-12-07T17:32:41;4.60;99.90
27376;DHT22;14844;51.302;6.354;2022-12-07T17:35:07;4.60;99.90
27376;DHT22;14844;51.302;6.354;2022-12-07T17:37:32;4.60;99.90
27376;DHT22;14844;51.302;6.354;2022-12-07T17:39:58;4.60;99.90
27376;DHT22;14844;51.302;6.354;2022-12-07T17:42:27;4.70;99.90
27376;DHT22;14844;51.302;6.354;2022-12-07T17:45:07;4.70;99.90
27376;DHT22;14844;51.302;6.354;2022-12-07T17:47:33;4.70;99.90
27376;DHT22;14844;51.302;6.354;2022-12-07T17:49:59;4.70;99.90
27376;DHT22;14844;51.302;6.354;2022-12-07T17:52:25;4.70;99.90
27376;DHT22;14844;51.302;6.354;2022-12-07T17:55:09;4.60;99.90